AFO weather

Afton Municipal Airport
Afton, Wyoming, United States

Public forecast

Using degrees Fahrenheit for public forecast. Weather courtesy of forecast.io.

METAR (pilot weather report)

Retrieved 2019/06/20 00:35 UTC (0 seconds ago):

KAFO 200035Z AUTO 26015KT 10SM CLR 18/01 A2994 RMK AO2

TAF (pilot weather forecast)

Forecast is more than 12 hours old.

Closest forecast is Miley Memorial Field, 37.5 nm (69.4 km) ESE. Retrieved 2019/06/19 00:24 UTC (24 hours ago):

TAF KBPI 192321Z 2000/2024 29024G35KT P6SM SCT200 FM200400 31015G22KT P6SM SCT250 FM200900 33009KT P6SM FEW250 FM201400 25015G23KT P6SM SKC FM201700 26022G30KT P6SM SCT200